Time,TemperatureF,DewpointF,PressureIn,WindDirection,WindDirectionDegrees,WindSpeedMPH,WindSpeedGustMPH,Humidity,HourlyPrecipIn,Conditions,Clouds,dailyrainin,SolarRadiationWatts/m^2,SoftwareType,DateUTC
2013-11-29 00:42:00,24.0,20.0,-100.00,SSE,149,6.0,11.0,84,0.00,,,0.00,0.000000,,2013-11-29 07:42:00,
2013-11-29 00:52:00,24.0,20.0,-100.00,SSE,149,6.0,11.0,84,0.00,,,0.00,0.000000,,2013-11-29 07:52:00,
2013-11-29 01:52:00,23.0,19.0,-100.00,SSE,150,7.0,8.0,85,0.00,,,0.00,0.000000,,2013-11-29 08:52:00,
2013-11-29 02:43:00,25.0,20.0,-100.00,SE,144,8.0,10.0,82,-99.99,,,0.00,0.000000,,2013-11-29 09:43:00,
2013-11-29 02:52:00,25.0,20.0,-100.00,SE,144,8.0,10.0,82,-99.99,,,0.00,0.000000,,2013-11-29 09:52:00,
2013-11-29 03:42:00,24.0,20.0,-100.00,SE,143,2.0,10.0,84,0.00,,,0.00,0.000000,,2013-11-29 10:42:00,
2013-11-29 03:52:00,24.0,20.0,-100.00,SE,143,2.0,10.0,84,0.00,,,0.00,0.000000,,2013-11-29 10:52:00,
2013-11-29 04:21:00,26.0,21.0,-100.00,SE,143,9.0,11.0,80,0.00,,,0.00,0.000000,,2013-11-29 11:21:00,
2013-11-29 04:32:00,26.0,21.0,-100.00,SE,143,9.0,11.0,80,0.00,,,0.00,0.000000,,2013-11-29 11:32:00,
2013-11-29 04:42:00,26.0,21.0,-100.00,SE,143,9.0,11.0,80,0.00,,,0.00,0.000000,,2013-11-29 11:42:00,
2013-11-29 04:52:00,26.0,21.0,-100.00,SE,143,9.0,11.0,80,0.00,,,0.00,0.000000,,2013-11-29 11:52:00,
2013-11-29 05:42:00,26.0,21.0,-100.00,SE,133,9.0,12.0,80,0.00,,,0.00,0.000000,,2013-11-29 12:42:00,
2013-11-29 05:52:00,26.0,21.0,-100.00,SE,133,9.0,12.0,80,0.00,,,0.00,0.000000,,2013-11-29 12:52:00,
2013-11-29 06:42:00,25.0,19.0,-100.00,SE,143,8.0,13.0,78,0.00,,,0.00,0.000000,,2013-11-29 13:42:00,
2013-11-29 06:52:00,25.0,19.0,-100.00,SE,143,8.0,13.0,78,0.00,,,0.00,0.000000,,2013-11-29 13:52:00,
2013-11-29 07:42:00,27.0,20.0,-100.00,SE,132,9.0,11.0,76,0.00,,,0.00,0.000000,,2013-11-29 14:42:00,
2013-11-29 07:52:00,27.0,20.0,-100.00,SE,132,9.0,11.0,76,0.00,,,0.00,0.000000,,2013-11-29 14:52:00,
2013-11-29 08:43:00,27.0,20.0,-100.00,SE,139,8.0,11.0,75,0.00,,,0.00,13.000000,,2013-11-29 15:43:00,
2013-11-29 08:53:00,27.0,20.0,-100.00,SE,139,8.0,11.0,75,0.00,,,0.00,13.000000,,2013-11-29 15:53:00,
2013-11-29 09:42:00,33.0,25.0,-100.00,SSE,147,8.0,10.0,72,0.00,,,0.00,130.000000,,2013-11-29 16:42:00,
2013-11-29 09:52:00,33.0,25.0,-100.00,SSE,147,8.0,10.0,72,0.00,,,0.00,130.000000,,2013-11-29 16:52:00,
2013-11-29 10:43:00,40.0,28.0,-100.00,SE,139,8.0,12.0,61,0.00,,,0.00,250.000000,,2013-11-29 17:43:00,
2013-11-29 10:52:00,40.0,28.0,-100.00,SE,139,8.0,12.0,61,0.00,,,0.00,250.000000,,2013-11-29 17:52:00,
2013-11-29 11:42:00,48.0,30.0,-100.00,SSE,153,6.0,11.0,49,0.00,,,0.00,337.000000,,2013-11-29 18:42:00,
2013-11-29 11:52:00,48.0,30.0,-100.00,SSE,153,6.0,11.0,49,0.00,,,0.00,337.000000,,2013-11-29 18:52:00,
2013-11-29 12:21:00,54.0,30.0,-100.00,SSW,198,4.0,9.0,39,0.00,,,0.00,381.000000,,2013-11-29 19:21:00,
2013-11-29 12:32:00,54.0,30.0,-100.00,SSW,198,4.0,9.0,39,0.00,,,0.00,381.000000,,2013-11-29 19:32:00,
2013-11-29 12:42:00,54.0,30.0,-100.00,SSW,198,4.0,9.0,39,0.00,,,0.00,381.000000,,2013-11-29 19:42:00,
2013-11-29 12:52:00,54.0,30.0,-100.00,SSW,198,4.0,9.0,39,0.00,,,0.00,381.000000,,2013-11-29 19:52:00,
2013-11-29 13:42:00,59.0,25.0,-100.00,WNW,286,9.0,14.0,27,0.00,,,0.00,376.000000,,2013-11-29 20:42:00,
2013-11-29 13:52:00,59.0,25.0,-100.00,WNW,286,9.0,14.0,27,0.00,,,0.00,376.000000,,2013-11-29 20:52:00,
2013-11-29 14:43:00,61.0,24.0,-100.00,WNW,283,9.0,16.0,24,0.00,,,0.00,322.000000,,2013-11-29 21:43:00,
2013-11-29 14:53:00,61.0,24.0,-100.00,WNW,283,9.0,16.0,24,0.00,,,0.00,322.000000,,2013-11-29 21:53:00,
2013-11-29 15:42:00,60.0,20.0,-100.00,WSW,257,10.0,17.0,21,0.00,,,0.00,222.000000,,2013-11-29 22:42:00,
2013-11-29 15:52:00,60.0,20.0,-100.00,WSW,257,10.0,17.0,21,0.00,,,0.00,222.000000,,2013-11-29 22:52:00,
2013-11-29 16:42:00,57.0,22.0,-100.00,WSW,251,6.0,12.0,26,0.00,,,0.00,104.000000,,2013-11-29 23:42:00,
2013-11-29 16:52:00,57.0,22.0,-100.00,WSW,251,6.0,12.0,26,0.00,,,0.00,104.000000,,2013-11-29 23:52:00,
2013-11-29 17:21:00,46.0,19.0,-100.00,SSW,194,4.0,12.0,34,0.00,,,0.00,8.000000,,2013-11-30 00:21:00,
2013-11-29 17:32:00,46.0,19.0,-100.00,SSW,194,4.0,12.0,34,0.00,,,0.00,8.000000,,2013-11-30 00:32:00,
2013-11-29 17:42:00,46.0,19.0,-100.00,SSW,194,4.0,12.0,34,0.00,,,0.00,8.000000,,2013-11-30 00:42:00,
2013-11-29 17:52:00,46.0,19.0,-100.00,SSW,194,4.0,12.0,34,0.00,,,0.00,8.000000,,2013-11-30 00:52:00,
2013-11-29 18:42:00,41.0,22.0,-100.00,SE,145,6.0,9.0,46,0.00,,,0.00,0.000000,,2013-11-30 01:42:00,
2013-11-29 19:21:00,42.0,25.0,-100.00,ESE,108,5.0,8.0,50,0.00,,,0.00,0.000000,,2013-11-30 02:21:00,
2013-11-29 19:32:00,42.0,25.0,-100.00,ESE,108,5.0,8.0,50,0.00,,,0.00,0.000000,,2013-11-30 02:32:00,
2013-11-29 19:42:00,42.0,25.0,-100.00,ESE,108,5.0,8.0,50,0.00,,,0.00,0.000000,,2013-11-30 02:42:00,
2013-11-29 19:52:00,42.0,25.0,-100.00,ESE,108,5.0,8.0,50,0.00,,,0.00,0.000000,,2013-11-30 02:52:00,
2013-11-29 20:43:00,35.0,19.0,-100.00,SE,145,8.0,9.0,52,0.00,,,0.00,0.000000,,2013-11-30 03:43:00,
2013-11-29 21:43:00,35.0,23.0,-100.00,SE,144,8.0,11.0,60,-99.99,,,0.00,0.000000,,2013-11-30 04:43:00,
2013-11-29 21:53:00,35.0,23.0,-100.00,SE,144,8.0,11.0,60,-99.99,,,0.00,0.000000,,2013-11-30 04:53:00,
2013-11-29 22:42:00,32.0,22.0,-100.00,SE,142,9.0,11.0,67,0.00,,,0.00,0.000000,,2013-11-30 05:42:00,
2013-11-29 22:53:00,32.0,22.0,-100.00,SE,142,9.0,11.0,67,0.00,,,0.00,0.000000,,2013-11-30 05:53:00,
2013-11-29 23:42:00,33.0,22.0,-100.00,SE,141,6.0,10.0,64,0.00,,,0.00,0.000000,,2013-11-30 06:42:00,
2013-11-29 23:52:00,33.0,22.0,-100.00,SE,141,6.0,10.0,64,0.00,,,0.00,0.000000,,2013-11-30 06:52:00,